Time;durP1;ratioP1;P1;durP2;ratioP2;P2;SDS_P1;SDS_P2;PMS_P1;PMS_P2;Temp;Humidity;BMP_temperature;BMP_pressure;BME280_temperature;BME280_humidity;BME280_pressure;Samples;Min_cycle;Max_cycle;Signal;HPM_P1;HPM_P2
2020/12/29 00:02:23;;;;;;;8.70;7.53;;;5.60;96.30;;;;;;4993669;28;20501;-34
2020/12/29 00:04:49;;;;;;;7.97;7.18;;;5.60;96.30;;;;;;4988430;28;20030;-34
2020/12/29 00:07:14;;;;;;;8.02;6.90;;;5.60;96.30;;;;;;4987453;28;20026;-34
2020/12/29 00:09:40;;;;;;;7.97;7.15;;;5.60;96.30;;;;;;4988759;28;20022;-35
2020/12/29 00:12:05;;;;;;;8.30;6.82;;;5.60;96.30;;;;;;4988025;28;20433;-33
2020/12/29 00:14:31;;;;;;;8.13;7.18;;;5.60;96.20;;;;;;4987707;28;20022;-36
2020/12/29 00:16:56;;;;;;;7.15;6.45;;;5.60;96.30;;;;;;4988458;28;20026;-40
2020/12/29 00:19:24;;;;;;;7.93;7.13;;;5.60;96.50;;;;;;4987306;28;20062;-35
2020/12/29 00:21:50;;;;;;;7.63;6.63;;;5.60;96.30;;;;;;4988342;28;20040;-33
2020/12/29 00:24:16;;;;;;;9.38;7.72;;;5.60;96.30;;;;;;4987843;28;20018;-33
2020/12/29 00:26:41;;;;;;;8.90;7.47;;;5.60;96.30;;;;;;4987948;28;20031;-34
2020/12/29 00:29:10;;;;;;;7.40;6.60;;;5.60;96.30;;;;;;4988500;28;20034;-33
2020/12/29 00:31:36;;;;;;;8.10;6.78;;;5.50;96.30;;;;;;4987871;28;20481;-34
2020/12/29 00:34:02;;;;;;;7.82;7.03;;;5.50;96.30;;;;;;4987568;28;20085;-34
2020/12/29 00:36:28;;;;;;;7.65;6.85;;;5.50;96.30;;;;;;4987681;28;20478;-34
2020/12/29 00:38:54;;;;;;;7.97;7.00;;;5.50;96.30;;;;;;4988027;28;20121;-35
2020/12/29 00:41:20;;;;;;;12.75;9.75;;;5.50;96.30;;;;;;4986111;28;20054;-34
2020/12/29 00:43:46;;;;;;;9.02;7.60;;;5.50;96.30;;;;;;4987986;28;20053;-34
2020/12/29 00:46:16;;;;;;;10.63;8.10;;;5.50;96.30;;;;;;4987569;28;20390;-35
2020/12/29 00:48:42;;;;;;;8.25;7.40;;;5.50;96.30;;;;;;4987982;28;20030;-34
2020/12/29 00:51:19;;;;;;;8.75;7.57;;;5.50;96.30;;;;;;4987781;28;20081;-34
2020/12/29 00:53:45;;;;;;;8.18;7.15;;;5.50;96.40;;;;;;4988080;28;20022;-35
2020/12/29 00:56:11;;;;;;;7.40;6.60;;;5.50;96.40;;;;;;4987234;28;20038;-35
2020/12/29 00:58:37;;;;;;;10.48;7.70;;;5.50;96.40;;;;;;4987559;28;20714;-34
2020/12/29 01:01:05;;;;;;;8.80;7.90;;;5.50;96.30;;;;;;4987696;28;20038;-34
2020/12/29 01:03:30;;;;;;;7.13;6.43;;;5.50;96.40;;;;;;4986799;28;20042;-34
2020/12/29 01:05:56;;;;;;;9.07;7.28;;;5.60;96.40;;;;;;4987936;28;20034;-34
2020/12/29 01:08:22;;;;;;;8.27;7.20;;;5.50;96.30;;;;;;4987172;28;20026;-34
2020/12/29 01:10:52;;;;;;;10.25;7.53;;;5.50;96.30;;;;;;4987296;28;20027;-34
2020/12/29 01:13:18;;;;;;;8.25;7.40;;;5.60;96.40;;;;;;4987493;28;20027;-34
2020/12/29 01:15:44;;;;;;;8.20;7.40;;;5.60;96.40;;;;;;4987372;28;20450;-34
2020/12/29 01:18:09;;;;;;;10.00;7.40;;;5.60;96.40;;;;;;4987719;28;20073;-34
2020/12/29 01:20:35;;;;;;;7.22;6.53;;;5.60;96.30;;;;;;4987610;28;20663;-34
2020/12/29 01:23:00;;;;;;;7.53;6.72;;;5.60;96.30;;;;;;4987719;28;20034;-34
2020/12/29 01:25:26;;;;;;;7.68;6.80;;;5.60;96.30;;;;;;4991145;28;20033;-33
2020/12/29 01:27:51;;;;;;;7.68;6.88;;;5.60;96.40;;;;;;4991811;28;20038;-34
2020/12/29 01:30:17;;;;;;;7.70;6.90;;;5.60;96.30;;;;;;4990267;28;20027;-34
2020/12/29 01:32:44;;;;;;;7.00;6.28;;;5.60;96.40;;;;;;4991207;28;20386;-34
2020/12/29 01:35:10;;;;;;;7.50;6.38;;;5.60;96.30;;;;;;4991458;28;20073;-35
2020/12/29 01:37:36;;;;;;;7.35;6.57;;;5.60;96.40;;;;;;4990392;28;20018;-34
2020/12/29 01:40:03;;;;;;;7.47;6.68;;;5.60;96.40;;;;;;4991195;28;20057;-33
2020/12/29 01:42:29;;;;;;;7.40;6.57;;;5.60;96.40;;;;;;4990524;28;20050;-34
2020/12/29 01:44:54;;;;;;;7.43;6.63;;;5.60;96.30;;;;;;4990813;28;20022;-33
2020/12/29 01:47:21;;;;;;;7.13;6.43;;;5.60;96.30;;;;;;4990420;28;20018;-33
2020/12/29 01:49:47;;;;;;;8.50;6.53;;;5.60;96.30;;;;;;4991319;28;20081;-34
2020/12/29 01:52:13;;;;;;;7.82;7.03;;;5.60;96.30;;;;;;4990355;28;20386;-34
2020/12/29 01:54:40;;;;;;;7.70;6.90;;;5.60;96.30;;;;;;4990806;28;20026;-35
2020/12/29 01:57:05;;;;;;;8.77;7.75;;;5.60;96.30;;;;;;4991124;28;20113;-34
2020/12/29 01:59:31;;;;;;;8.27;7.00;;;5.60;96.30;;;;;;4989941;28;20109;-34
2020/12/29 02:01:57;;;;;;;8.35;7.47;;;5.60;96.50;;;;;;4990685;28;20061;-34
2020/12/29 02:04:23;;;;;;;8.02;7.22;;;5.60;96.30;;;;;;4990599;28;20026;-36
2020/12/29 02:06:49;;;;;;;8.93;7.68;;;5.60;96.30;;;;;;4990295;28;20065;-33
2020/12/29 02:09:24;;;;;;;7.57;6.68;;;5.50;96.30;;;;;;4990186;28;20031;-33
2020/12/29 02:11:50;;;;;;;7.10;6.40;;;5.50;96.30;;;;;;4990499;28;20065;-34
2020/12/29 02:14:16;;;;;;;8.57;7.20;;;5.50;96.40;;;;;;4989960;28;20046;-34
2020/12/29 02:16:43;;;;;;;9.15;7.03;;;5.60;96.40;;;;;;4990384;28;20027;-33
2020/12/29 02:19:09;;;;;;;8.05;6.97;;;5.50;96.30;;;;;;4990008;28;20022;-36
2020/12/29 02:21:36;;;;;;;8.43;7.40;;;5.50;96.30;;;;;;4990403;28;20423;-33
2020/12/29 02:24:03;;;;;;;8.32;7.40;;;5.50;96.30;;;;;;4990609;28;20019;-32
2020/12/29 02:26:33;;;;;;;7.43;6.65;;;5.50;96.30;;;;;;4989303;28;20022;-34
2020/12/29 02:29:06;;;;;;;7.03;6.10;;;5.50;96.30;;;;;;4990001;28;20026;-34
2020/12/29 02:31:31;;;;;;;7.63;6.82;;;5.50;96.40;;;;;;4990144;28;20030;-34
2020/12/29 02:33:57;;;;;;;7.50;6.65;;;5.50;96.40;;;;;;4989456;28;20422;-34
2020/12/29 02:36:23;;;;;;;8.15;7.22;;;5.50;96.40;;;;;;4989618;28;20030;-35
2020/12/29 02:38:49;;;;;;;9.27;7.40;;;5.50;96.40;;;;;;4990405;28;20030;-35
2020/12/29 02:41:19;;;;;;;8.07;7.25;;;5.50;96.40;;;;;;4989026;28;20080;-34
2020/12/29 02:43:45;;;;;;;7.60;6.82;;;5.50;96.40;;;;;;4990316;28;20089;-35
2020/12/29 02:46:14;;;;;;;7.63;6.82;;;5.50;96.30;;;;;;4990010;28;20022;-35
2020/12/29 02:48:40;;;;;;;7.18;6.05;;;5.50;96.30;;;;;;4989732;28;20587;-35
2020/12/29 02:51:06;;;;;;;7.20;6.50;;;5.50;96.30;;;;;;4989896;28;20685;-35
2020/12/29 02:53:31;;;;;;;7.80;7.00;;;5.50;96.30;;;;;;4989403;28;20351;-33
2020/12/29 02:55:56;;;;;;;9.15;6.78;;;5.50;96.30;;;;;;4989475;28;20027;-33
2020/12/29 02:58:22;;;;;;;7.85;6.63;;;5.50;96.30;;;;;;4989160;28;20026;-34
2020/12/29 03:00:50;;;;;;;7.78;6.90;;;5.40;96.30;;;;;;4990045;28;20031;-34
2020/12/29 03:03:16;;;;;;;7.53;6.65;;;5.50;96.40;;;;;;4988715;28;20097;-34
2020/12/29 03:05:41;;;;;;;7.15;6.45;;;5.40;96.40;;;;;;4989459;28;20117;-35
2020/12/29 03:08:07;;;;;;;7.32;6.28;;;5.40;96.40;;;;;;4989285;28;20077;-33
2020/12/29 03:10:37;;;;;;;7.95;7.15;;;5.40;96.40;;;;;;4989236;28;20022;-34
2020/12/29 03:13:03;;;;;;;7.38;6.65;;;5.40;96.40;;;;;;4989724;28;20068;-35
2020/12/29 03:15:29;;;;;;;6.88;6.18;;;5.50;96.40;;;;;;4988747;28;20905;-34
2020/12/29 03:17:54;;;;;;;7.88;6.55;;;5.50;96.40;;;;;;4989603;28;20117;-34
2020/12/29 03:20:20;;;;;;;6.97;6.15;;;5.50;96.40;;;;;;4988886;28;20109;-34
2020/12/29 03:22:45;;;;;;;7.13;6.43;;;5.50;96.40;;;;;;4989140;28;20324;-34
2020/12/29 03:25:11;;;;;;;8.02;7.22;;;5.50;96.40;;;;;;4988903;28;20030;-34
2020/12/29 03:27:36;;;;;;;8.73;6.95;;;5.50;96.30;;;;;;4988816;28;20180;-34
2020/12/29 03:30:02;;;;;;;7.43;6.72;;;5.50;96.30;;;;;;4988878;28;20044;-34
2020/12/29 03:32:28;;;;;;;8.38;7.57;;;5.50;96.30;;;;;;4988894;28;20046;-34
2020/12/29 03:34:53;;;;;;;7.90;7.10;;;5.50;96.30;;;;;;4989147;28;20398;-35
2020/12/29 03:37:19;;;;;;;8.40;7.55;;;5.40;96.30;;;;;;4988138;28;20030;-34
2020/12/29 03:39:44;;;;;;;9.70;7.95;;;5.50;96.40;;;;;;4989204;28;20137;-35
2020/12/29 03:42:10;;;;;;;8.88;7.97;;;5.50;96.30;;;;;;4988731;28;20042;-35
2020/12/29 03:44:35;;;;;;;8.73;7.82;;;5.50;96.30;;;;;;4988510;28;20121;-34
2020/12/29 03:47:04;;;;;;;10.02;7.93;;;5.50;96.30;;;;;;4988247;28;20418;-33
2020/12/29 03:49:29;;;;;;;8.32;7.45;;;5.40;96.30;;;;;;4988357;28;20053;-33
2020/12/29 03:51:55;;;;;;;8.23;7.22;;;5.50;96.40;;;;;;4988308;28;20069;-33
2020/12/29 03:54:20;;;;;;;7.97;7.18;;;5.50;96.30;;;;;;4988423;28;20030;-33
2020/12/29 03:56:46;;;;;;;8.20;7.40;;;5.50;96.30;;;;;;4988965;28;20425;-33
2020/12/29 03:59:12;;;;;;;8.65;7.85;;;5.50;96.30;;;;;;4988070;28;20532;-33
2020/12/29 04:01:37;;;;;;;8.13;7.30;;;5.50;96.30;;;;;;4988626;28;20453;-33
2020/12/29 04:04:03;;;;;;;8.43;7.53;;;5.50;96.30;;;;;;4988686;28;20026;-36
2020/12/29 04:06:29;;;;;;;8.40;7.25;;;5.50;96.40;;;;;;4987608;28;20502;-33
2020/12/29 04:08:54;;;;;;;8.60;7.30;;;5.40;96.40;;;;;;4988562;28;20157;-34
2020/12/29 04:11:20;;;;;;;8.13;7.32;;;5.50;96.40;;;;;;4988053;28;20034;-33
2020/12/29 04:13:45;;;;;;;7.97;7.18;;;5.40;96.30;;;;;;4988019;28;20030;-34
2020/12/29 04:16:11;;;;;;;8.73;7.00;;;5.40;96.30;;;;;;4988277;28;20018;-33
2020/12/29 04:18:37;;;;;;;7.72;7.03;;;5.40;96.40;;;;;;4988054;28;20559;-34
2020/12/29 04:21:03;;;;;;;7.30;6.60;;;5.40;96.40;;;;;;4988394;28;20038;-33
2020/12/29 04:23:30;;;;;;;10.05;7.25;;;5.40;96.40;;;;;;4987589;28;20455;-35
2020/12/29 04:25:55;;;;;;;8.25;7.45;;;5.40;96.40;;;;;;4988218;28;20045;-33
2020/12/29 04:28:21;;;;;;;9.13;7.47;;;5.40;96.40;;;;;;4987772;28;20117;-32
2020/12/29 04:30:46;;;;;;;8.70;7.75;;;5.40;96.40;;;;;;4988443;28;20084;-34
2020/12/29 04:33:12;;;;;;;8.25;7.45;;;5.40;96.40;;;;;;4987783;28;20030;-33
2020/12/29 04:35:37;;;;;;;7.40;6.70;;;5.40;96.40;;;;;;4988079;28;20044;-34
2020/12/29 04:38:03;;;;;;;8.25;6.93;;;5.40;96.40;;;;;;4987951;28;20034;-33
2020/12/29 04:40:30;;;;;;;7.15;6.53;;;5.40;96.40;;;;;;4987604;28;20033;-33
2020/12/29 04:42:57;;;;;;;7.70;6.90;;;5.30;96.40;;;;;;4988015;28;20043;-33
2020/12/29 04:45:23;;;;;;;7.78;6.93;;;5.30;96.40;;;;;;4987697;28;20018;-33
2020/12/29 04:47:50;;;;;;;7.97;7.03;;;5.30;96.40;;;;;;4988113;28;20031;-34
2020/12/29 04:50:18;;;;;;;7.32;6.60;;;5.30;96.40;;;;;;4987424;28;20406;-33
2020/12/29 04:52:45;;;;;;;7.32;6.55;;;5.30;96.50;;;;;;4988161;28;20030;-34
2020/12/29 04:55:11;;;;;;;8.15;6.93;;;5.30;96.50;;;;;;4987828;28;20061;-34
2020/12/29 04:57:36;;;;;;;6.93;6.32;;;5.30;96.50;;;;;;4989110;28;20038;-33
2020/12/29 05:00:07;;;;;;;7.85;7.05;;;5.30;96.40;;;;;;4992129;28;20169;-34
2020/12/29 05:02:32;;;;;;;7.75;6.97;;;5.30;96.50;;;;;;4991455;28;20445;-34
2020/12/29 05:04:58;;;;;;;9.02;7.72;;;5.30;96.50;;;;;;4992243;28;20393;-34
2020/12/29 05:07:27;;;;;;;8.73;7.60;;;5.40;96.50;;;;;;4991368;28;20033;-35
2020/12/29 05:09:53;;;;;;;8.98;7.68;;;5.40;96.40;;;;;;4991809;28;20034;-34
2020/12/29 05:12:18;;;;;;;8.32;7.20;;;5.40;96.40;;;;;;4991777;28;20034;-35
2020/12/29 05:14:45;;;;;;;7.60;6.82;;;5.40;96.40;;;;;;4991663;28;20054;-33
2020/12/29 05:17:11;;;;;;;8.25;6.90;;;5.40;96.40;;;;;;4991721;28;20085;-34
2020/12/29 05:19:37;;;;;;;8.70;7.80;;;5.40;96.40;;;;;;4991872;28;20105;-34
2020/12/29 05:22:03;;;;;;;9.23;8.15;;;5.30;96.40;;;;;;4991299;28;20250;-33
2020/12/29 05:24:28;;;;;;;8.50;7.60;;;5.30;96.40;;;;;;4991174;28;20023;-33
2020/12/29 05:26:57;;;;;;;10.90;8.38;;;5.30;96.40;;;;;;4992216;28;20053;-33
2020/12/29 05:29:24;;;;;;;9.60;8.45;;;5.30;96.40;;;;;;4990753;28;20069;-35
2020/12/29 05:31:50;;;;;;;10.40;9.05;;;5.30;96.40;;;;;;4991646;28;20034;-33
2020/12/29 05:34:24;;;;;;;12.52;10.18;;;5.20;96.40;;;;;;4991427;28;20125;-35
2020/12/29 05:36:50;;;;;;;12.75;11.35;;;5.20;96.50;;;;;;4991356;28;20033;-33
2020/12/29 05:39:17;;;;;;;14.35;11.48;;;5.20;96.50;;;;;;4991191;28;20073;-34
2020/12/29 05:41:45;;;;;;;16.55;12.65;;;5.20;96.60;;;;;;4991593;28;20037;-33
2020/12/29 05:44:25;;;;;;;13.68;12.00;;;5.20;96.70;;;;;;4990942;28;20113;-33
2020/12/29 05:46:50;;;;;;;19.83;13.63;;;5.10;96.70;;;;;;4991300;28;20034;-33
2020/12/29 05:49:18;;;;;;;14.20;12.38;;;5.10;96.80;;;;;;4991220;28;20031;-35
2020/12/29 05:51:47;;;;;;;14.50;12.10;;;5.10;96.80;;;;;;4991039;28;20057;-35
2020/12/29 05:54:16;;;;;;;12.10;10.18;;;5.10;96.80;;;;;;4990883;28;20062;-33
2020/12/29 05:56:42;;;;;;;12.77;10.43;;;5.20;96.80;;;;;;4991390;28;20026;-34
2020/12/29 05:59:07;;;;;;;12.45;10.57;;;5.20;96.80;;;;;;4990611;28;20022;-33
2020/12/29 06:01:40;;;;;;;12.90;10.13;;;5.20;96.80;;;;;;4990488;28;20038;-34
2020/12/29 06:04:07;;;;;;;15.13;11.75;;;5.20;96.80;;;;;;4990880;28;20720;-34
2020/12/29 06:06:37;;;;;;;14.35;11.85;;;5.20;96.80;;;;;;4990587;28;20121;-33
2020/12/29 06:09:08;;;;;;;13.20;11.13;;;5.20;96.80;;;;;;4990503;28;20019;-33
2020/12/29 06:11:46;;;;;;;14.57;12.90;;;5.20;96.80;;;;;;4990318;28;20118;-34
2020/12/29 06:14:17;;;;;;;16.13;11.77;;;5.20;96.80;;;;;;4990923;28;20113;-33
2020/12/29 06:16:44;;;;;;;14.30;12.40;;;5.30;96.80;;;;;;4991051;28;20113;-33
2020/12/29 06:19:29;;;;;;;18.90;13.70;;;5.30;96.80;;;;;;4990222;28;20057;-33
2020/12/29 06:22:07;;;;;;;19.33;14.48;;;5.30;96.80;;;;;;4990964;28;20034;-33
2020/12/29 06:24:38;;;;;;;19.27;15.88;;;5.30;97.10;;;;;;4989944;28;20030;-33
2020/12/29 06:27:05;;;;;;;19.42;14.93;;;5.20;96.80;;;;;;4990211;28;20442;-33
2020/12/29 06:29:37;;;;;;;17.55;13.82;;;5.20;96.80;;;;;;4990491;28;20026;-34
2020/12/29 06:32:14;;;;;;;20.67;15.20;;;5.30;96.90;;;;;;4990508;28;20434;-36
2020/12/29 06:34:41;;;;;;;19.88;14.30;;;5.30;96.90;;;;;;4990568;28;20049;-34
2020/12/29 06:37:28;;;;;;;17.20;13.38;;;5.30;96.90;;;;;;4990628;28;20641;-34
2020/12/29 06:40:01;;;;;;;20.45;15.40;;;5.30;96.90;;;;;;4990447;28;20105;-35
2020/12/29 06:42:27;;;;;;;18.52;14.73;;;5.30;96.90;;;;;;4989843;28;20108;-34
2020/12/29 06:44:57;;;;;;;21.63;15.57;;;5.30;96.90;;;;;;4990693;28;20030;-35
2020/12/29 06:47:27;;;;;;;21.13;16.30;;;5.30;96.90;;;;;;4989502;28;20490;-34
2020/12/29 06:49:54;;;;;;;22.13;17.08;;;5.30;97.00;;;;;;4990341;28;20629;-35
2020/12/29 06:52:29;;;;;;;22.00;17.15;;;5.30;97.00;;;;;;4989860;28;20117;-33
2020/12/29 06:54:57;;;;;;;19.35;15.45;;;5.30;97.00;;;;;;4990178;28;20031;-34
2020/12/29 06:57:46;;;;;;;21.38;16.92;;;5.30;97.00;;;;;;4989524;28;20118;-34
2020/12/29 07:00:11;;;;;;;23.73;18.52;;;5.30;97.00;;;;;;4989857;28;20097;-34
2020/12/29 07:02:39;;;;;;;21.52;17.10;;;5.30;97.30;;;;;;4989692;28;20133;-34
2020/12/29 07:05:35;;;;;;;21.67;17.30;;;5.30;97.00;;;;;;4990342;28;20053;-34
2020/12/29 07:08:00;;;;;;;19.80;15.90;;;5.20;97.00;;;;;;4989371;28;20061;-34
2020/12/29 07:10:33;;;;;;;22.35;16.55;;;5.20;97.00;;;;;;4989086;28;20097;-33
2020/12/29 07:13:04;;;;;;;21.02;15.93;;;5.20;97.10;;;;;;4989883;28;20026;-33
2020/12/29 07:15:32;;;;;;;18.75;13.80;;;5.10;97.00;;;;;;4989048;28;20084;-35
2020/12/29 07:18:04;;;;;;;17.55;13.93;;;5.10;97.10;;;;;;4989380;28;20022;-34
2020/12/29 07:20:34;;;;;;;16.48;12.90;;;5.10;97.10;;;;;;4988439;28;20473;-34
2020/12/29 07:23:07;;;;;;;16.05;11.88;;;5.00;97.10;;;;;;4988932;28;20046;-34
2020/12/29 07:25:35;;;;;;;15.73;11.75;;;5.00;97.10;;;;;;4989004;28;20816;-35
2020/12/29 07:28:06;;;;;;;15.07;12.20;;;5.00;97.10;;;;;;4989711;28;20031;-33
2020/12/29 07:30:34;;;;;;;14.07;11.07;;;5.00;97.10;;;;;;4988459;28;20870;-34
2020/12/29 07:33:05;;;;;;;17.85;13.00;;;4.90;97.10;;;;;;4989218;28;20465;-34
2020/12/29 07:35:32;;;;;;;18.40;14.25;;;4.90;97.10;;;;;;4988813;28;20066;-34
2020/12/29 07:38:12;;;;;;;19.00;14.23;;;4.90;97.10;;;;;;4989528;28;20018;-33
2020/12/29 07:40:37;;;;;;;18.63;14.02;;;4.90;97.10;;;;;;4989336;28;20026;-33
2020/12/29 07:43:04;;;;;;;18.80;13.43;;;4.90;97.10;;;;;;4988842;28;20069;-34
2020/12/29 07:45:30;;;;;;;18.95;14.02;;;4.80;97.10;;;;;;4988426;28;20050;-34
2020/12/29 07:47:59;;;;;;;20.42;14.27;;;4.80;97.10;;;;;;4987922;28;20049;-34
2020/12/29 07:50:24;;;;;;;19.48;13.98;;;4.80;97.10;;;;;;4988190;28;20026;-34
2020/12/29 07:52:50;;;;;;;21.77;15.45;;;4.80;97.10;;;;;;4989298;28;20030;-34
2020/12/29 07:55:16;;;;;;;21.58;14.77;;;4.80;97.10;;;;;;4988656;28;20026;-34
2020/12/29 07:57:42;;;;;;;21.13;15.13;;;4.80;97.10;;;;;;4988649;28;20516;-34
2020/12/29 08:00:10;;;;;;;23.23;16.20;;;4.80;97.10;;;;;;4988624;28;20446;-36
2020/12/29 08:02:36;;;;;;;21.17;15.02;;;4.70;97.20;;;;;;4988542;28;20030;-34
2020/12/29 08:05:02;;;;;;;22.85;14.75;;;4.80;97.20;;;;;;4988705;28;20493;-34
2020/12/29 08:07:27;;;;;;;25.40;16.20;;;4.80;97.20;;;;;;4988220;28;20042;-33
2020/12/29 08:09:53;;;;;;;22.60;15.40;;;4.80;97.20;;;;;;4988625;28;20029;-34
2020/12/29 08:12:18;;;;;;;25.10;16.88;;;4.80;97.20;;;;;;4986379;28;20062;-33
2020/12/29 08:14:44;;;;;;;28.15;18.85;;;4.80;97.20;;;;;;4989285;28;21400;-33
2020/12/29 08:17:10;;;;;;;27.60;18.50;;;4.80;97.20;;;;;;4994887;28;20490;-34
2020/12/29 08:19:36;;;;;;;25.15;18.02;;;4.70;97.00;;;;;;5005018;28;20036;-33
2020/12/29 08:22:09;;;;;;;26.80;17.73;;;4.70;97.00;;;;;;5007571;28;20033;-32
2020/12/29 08:24:36;;;;;;;25.65;16.10;;;4.60;97.00;;;;;;5006469;28;20501;-34
2020/12/29 08:27:05;;;;;;;21.45;14.95;;;4.60;97.00;;;;;;5008125;28;20017;-34
2020/12/29 08:29:32;;;;;;;21.92;15.73;;;4.60;97.00;;;;;;5005962;28;20580;-34
2020/12/29 08:32:06;;;;;;;22.83;15.65;;;4.60;97.10;;;;;;5006601;28;20029;-34
2020/12/29 08:34:33;;;;;;;22.00;14.55;;;4.60;97.10;;;;;;5006997;28;20121;-35
2020/12/29 08:37:02;;;;;;;20.67;14.15;;;4.50;97.00;;;;;;5007451;28;20469;-34
2020/12/29 08:39:40;;;;;;;19.83;14.50;;;4.50;97.10;;;;;;5005876;28;20030;-34
2020/12/29 08:42:08;;;;;;;21.75;15.05;;;4.50;97.10;;;;;;5006751;28;20077;-32
2020/12/29 08:44:41;;;;;;;21.08;14.77;;;4.50;97.10;;;;;;5006883;28;20046;-33
2020/12/29 08:47:11;;;;;;;18.88;12.68;;;4.50;97.10;;;;;;4994826;28;20029;-34
2020/12/29 08:49:37;;;;;;;17.67;12.30;;;4.50;97.10;;;;;;5007588;28;20037;-35
2020/12/29 08:52:02;;;;;;;18.20;13.25;;;4.50;97.20;;;;;;5007307;28;20143;-35
2020/12/29 08:54:34;;;;;;;17.13;12.50;;;4.50;97.00;;;;;;5006010;28;20033;-34
2020/12/29 08:57:01;;;;;;;19.02;13.50;;;4.50;97.10;;;;;;5007396;28;20030;-34
2020/12/29 08:59:37;;;;;;;18.73;12.88;;;4.50;97.00;;;;;;5006460;28;20036;-34
2020/12/29 09:02:03;;;;;;;20.23;14.45;;;4.50;97.00;;;;;;4996809;28;20118;-33
2020/12/29 09:04:33;;;;;;;23.35;15.20;;;4.50;97.00;;;;;;4986845;28;20053;-34
2020/12/29 09:07:00;;;;;;;22.15;15.75;;;4.50;97.00;;;;;;4987172;28;20068;-35
2020/12/29 09:09:27;;;;;;;20.05;13.60;;;4.50;97.00;;;;;;4986963;28;20105;-34
2020/12/29 09:12:12;;;;;;;22.83;15.63;;;4.60;97.00;;;;;;4987544;28;20031;-35
2020/12/29 09:14:39;;;;;;;22.67;15.48;;;4.60;96.90;;;;;;4987296;28;20492;-34
2020/12/29 09:17:07;;;;;;;21.75;15.57;;;4.60;96.90;;;;;;4988089;28;20030;-33
2020/12/29 09:19:33;;;;;;;26.38;18.65;;;4.50;96.90;;;;;;4987379;28;20121;-34
2020/12/29 09:22:06;;;;;;;22.95;16.77;;;4.50;96.90;;;;;;4987170;28;20041;-34
2020/12/29 09:24:31;;;;;;;23.55;16.73;;;4.50;96.90;;;;;;4987270;28;20485;-34
2020/12/29 09:26:57;;;;;;;26.42;17.95;;;4.50;96.90;;;;;;4987753;28;20022;-34
2020/12/29 09:29:23;;;;;;;25.02;17.42;;;4.50;96.90;;;;;;4998787;28;20469;-34
2020/12/29 09:31:53;;;;;;;26.67;18.00;;;4.40;96.90;;;;;;5007171;28;20548;-36
2020/12/29 09:34:19;;;;;;;24.85;16.20;;;4.50;97.00;;;;;;5007222;28;20030;-33
2020/12/29 09:36:45;;;;;;;26.55;18.08;;;4.40;96.90;;;;;;5006887;28;20669;-35
2020/12/29 09:39:11;;;;;;;23.85;16.95;;;4.50;96.90;;;;;;5007222;28;20034;-33
2020/12/29 09:41:36;;;;;;;24.25;17.23;;;4.50;97.00;;;;;;5007065;28;20532;-34
2020/12/29 09:44:02;;;;;;;24.17;17.58;;;4.50;97.00;;;;;;5007372;28;20096;-34
2020/12/29 09:46:40;;;;;;;24.38;17.20;;;4.50;96.90;;;;;;5010529;28;20477;-35
2020/12/29 09:49:06;;;;;;;23.27;16.42;;;4.50;97.00;;;;;;5010872;28;20080;-34
2020/12/29 09:51:32;;;;;;;23.95;16.63;;;4.50;97.00;;;;;;5006467;28;20033;-33
2020/12/29 09:53:58;;;;;;;23.23;15.88;;;4.50;97.00;;;;;;4999049;28;20092;-33
2020/12/29 09:56:24;;;;;;;22.50;16.52;;;4.50;97.00;;;;;;4990497;28;20093;-34
2020/12/29 09:58:50;;;;;;;20.50;15.40;;;4.50;97.00;;;;;;4990966;28;20068;-34
2020/12/29 10:01:16;;;;;;;21.75;15.52;;;4.60;97.00;;;;;;5010182;28;20034;-34
2020/12/29 10:03:42;;;;;;;21.50;15.45;;;4.60;97.00;;;;;;5010573;28;20029;-33
2020/12/29 10:06:07;;;;;;;21.60;15.05;;;4.70;97.00;;;;;;5000080;28;20532;-34
2020/12/29 10:08:33;;;;;;;21.63;15.27;;;4.70;97.30;;;;;;4990623;28;20038;-33
2020/12/29 10:10:58;;;;;;;21.65;14.75;;;4.70;97.00;;;;;;4990159;28;20044;-34
2020/12/29 10:13:24;;;;;;;20.92;14.80;;;4.70;96.90;;;;;;4990622;28;20172;-35
2020/12/29 10:15:50;;;;;;;19.85;13.60;;;4.70;96.90;;;;;;4990857;28;20026;-33
2020/12/29 10:18:16;;;;;;;20.27;13.43;;;4.70;97.00;;;;;;4990403;28;20035;-33
2020/12/29 10:20:41;;;;;;;18.13;12.95;;;4.70;97.00;;;;;;4990965;28;20033;-34
2020/12/29 10:23:07;;;;;;;16.48;11.82;;;4.80;97.00;;;;;;4993747;28;20034;-35
2020/12/29 10:25:32;;;;;;;16.55;12.05;;;4.80;97.00;;;;;;4999627;28;20113;-34
2020/12/29 10:27:58;;;;;;;20.08;14.55;;;4.80;96.90;;;;;;4999746;28;20049;-33
2020/12/29 10:30:23;;;;;;;16.63;12.05;;;4.90;96.90;;;;;;5000449;28;20046;-35
2020/12/29 10:32:49;;;;;;;18.13;13.10;;;4.90;96.90;;;;;;5004022;28;20486;-33
2020/12/29 10:35:15;;;;;;;19.95;14.70;;;4.90;96.80;;;;;;5009891;28;20061;-34
2020/12/29 10:37:40;;;;;;;18.95;12.65;;;4.90;96.90;;;;;;5010054;28;20025;-34
2020/12/29 10:40:06;;;;;;;16.98;12.77;;;4.90;96.90;;;;;;5009070;28;20485;-34
2020/12/29 10:42:32;;;;;;;16.45;12.23;;;4.90;96.90;;;;;;5009538;28;20049;-34
2020/12/29 10:44:58;;;;;;;17.15;12.45;;;4.90;96.90;;;;;;5005275;28;20117;-34
2020/12/29 10:47:23;;;;;;;18.27;13.30;;;4.90;96.90;;;;;;4990802;28;20046;-34
2020/12/29 10:49:48;;;;;;;20.17;14.18;;;5.00;97.00;;;;;;4990512;28;20026;-34
2020/12/29 10:52:14;;;;;;;18.65;13.93;;;5.00;96.90;;;;;;4989682;28;20031;-34
2020/12/29 10:54:39;;;;;;;20.05;15.05;;;5.10;96.90;;;;;;5002328;28;20572;-34
2020/12/29 10:57:05;;;;;;;20.98;14.45;;;5.10;96.90;;;;;;5009424;28;20026;-34
2020/12/29 10:59:33;;;;;;;20.05;14.65;;;5.20;96.90;;;;;;5008596;28;20053;-35
2020/12/29 11:01:59;;;;;;;21.45;15.40;;;5.20;96.90;;;;;;5009257;28;20056;-34
2020/12/29 11:04:25;;;;;;;22.80;16.90;;;5.20;96.80;;;;;;5008896;28;20533;-34
2020/12/29 11:06:51;;;;;;;25.13;17.98;;;5.20;96.80;;;;;;5009090;28;20045;-32
2020/12/29 11:09:17;;;;;;;23.85;16.73;;;5.20;96.80;;;;;;5008673;28;20022;-34
2020/12/29 11:11:43;;;;;;;21.27;15.93;;;5.20;96.70;;;;;;5007843;28;20034;-35
2020/12/29 11:14:12;;;;;;;23.58;16.73;;;5.20;96.60;;;;;;5008909;28;20169;-36
2020/12/29 11:16:37;;;;;;;19.10;13.95;;;5.10;96.70;;;;;;5009192;28;20029;-33
2020/12/29 11:19:03;;;;;;;20.58;15.05;;;5.10;96.70;;;;;;5009513;28;20393;-34
2020/12/29 11:21:28;;;;;;;20.88;15.23;;;5.00;96.80;;;;;;5008008;28;20080;-33
2020/12/29 11:23:54;;;;;;;22.33;15.63;;;4.90;96.90;;;;;;5009015;28;20034;-34
2020/12/29 11:26:23;;;;;;;20.98;15.18;;;4.90;96.90;;;;;;5008526;28;20113;-35
2020/12/29 11:28:49;;;;;;;22.35;15.55;;;4.90;97.00;;;;;;5004199;28;20018;-34
2020/12/29 11:31:16;;;;;;;20.40;14.70;;;4.80;97.00;;;;;;4988037;28;20037;-33
2020/12/29 11:33:42;;;;;;;19.77;13.80;;;4.90;97.10;;;;;;4988784;28;20052;-34
2020/12/29 11:36:08;;;;;;;18.85;13.23;;;4.90;97.10;;;;;;4991198;28;20134;-33
2020/12/29 11:38:34;;;;;;;17.95;12.95;;;4.90;97.10;;;;;;4998144;28;20017;-33
2020/12/29 11:41:00;;;;;;;21.27;15.48;;;5.00;97.10;;;;;;4997491;28;20040;-34
2020/12/29 11:43:26;;;;;;;20.00;14.68;;;5.00;97.10;;;;;;4997670;28;20111;-34
2020/12/29 11:45:51;;;;;;;17.73;12.80;;;5.00;97.10;;;;;;4996717;28;20100;-34
2020/12/29 11:48:17;;;;;;;16.73;12.25;;;5.10;97.10;;;;;;5003504;28;20079;-34
2020/12/29 11:50:42;;;;;;;19.50;13.25;;;5.10;97.10;;;;;;5006591;28;20064;-33
2020/12/29 11:53:08;;;;;;;16.75;12.32;;;5.20;97.10;;;;;;5006725;28;20041;-33
2020/12/29 11:55:33;;;;;;;18.63;12.80;;;5.30;97.10;;;;;;5005123;28;20045;-34
2020/12/29 11:57:59;;;;;;;20.90;14.98;;;5.30;97.00;;;;;;4994992;28;20033;-33
2020/12/29 12:00:24;;;;;;;23.38;16.60;;;5.40;97.00;;;;;;4997609;28;20083;-34
2020/12/29 12:02:50;;;;;;;24.20;16.52;;;5.40;96.90;;;;;;4995693;28;20481;-33
2020/12/29 12:05:15;;;;;;;24.27;17.10;;;5.40;96.90;;;;;;4994815;28;20496;-34
2020/12/29 12:07:41;;;;;;;26.10;17.27;;;5.50;96.90;;;;;;4996286;28;20025;-34
2020/12/29 12:10:08;;;;;;;25.98;17.15;;;5.50;96.80;;;;;;5007445;28;20429;-34
2020/12/29 12:12:35;;;;;;;24.58;16.13;;;5.50;96.80;;;;;;5007403;28;20030;-34
2020/12/29 12:15:00;;;;;;;24.90;16.27;;;5.60;96.80;;;;;;5001237;28;20077;-33
2020/12/29 12:17:26;;;;;;;23.70;16.38;;;5.60;96.70;;;;;;5000860;28;20034;-33
2020/12/29 12:19:51;;;;;;;22.70;14.40;;;5.60;96.70;;;;;;5003121;28;20038;-33
2020/12/29 12:22:17;;;;;;;21.38;14.57;;;5.60;96.80;;;;;;4991688;28;20046;-34
2020/12/29 12:24:42;;;;;;;21.63;15.63;;;5.60;96.70;;;;;;4993787;28;20046;-33
2020/12/29 12:27:08;;;;;;;32.42;21.75;;;5.60;96.70;;;;;;4995197;28;20030;-32
2020/12/29 12:29:34;;;;;;;30.27;21.17;;;5.70;96.70;;;;;;4992892;28;20034;-33
2020/12/29 12:31:59;;;;;;;30.88;21.73;;;5.60;96.70;;;;;;5004805;28;20041;-33
2020/12/29 12:34:25;;;;;;;31.65;21.33;;;5.70;96.70;;;;;;5005948;28;20108;-43
2020/12/29 12:36:52;;;;;;;31.10;21.85;;;5.70;96.70;;;;;;5007105;28;20068;-43
2020/12/29 12:39:18;;;;;;;37.08;25.60;;;5.70;96.70;;;;;;4991550;28;20448;-43
2020/12/29 12:41:44;;;;;;;34.53;24.17;;;5.80;96.70;;;;;;4986891;28;20410;-42
2020/12/29 12:44:10;;;;;;;37.17;25.17;;;5.80;96.60;;;;;;4987132;28;20043;-43
2020/12/29 12:46:40;;;;;;;35.40;24.67;;;5.80;96.60;;;;;;4986326;28;20316;-43